Terminal Aerodrome Forecast
Issued by NWS Duluth, MN

Home | Current Version | Previous Version | Text Only | Print | Product List | Glossary On
Versions: 1 2 3 4 5 6 7 8 9 10 11 12 13 14 15 16 17 18 19 20 21 22 23 24 25 26 27 28 29
000
FTUS43 KDLH 270100 AAA
TAFDLH
TAF AMD
KDLH 270119Z 2701/2724 34012G17KT P6SM OVC012
      TEMPO 2701/2703 6SM -FZDZSN
     FM270400 36008KT P6SM OVC010
     FM271000 VRB03KT 5SM BR OVC010
     FM271900 19006KT P6SM SCT015 BKN150=

USA.gov is the U.S. government's official web portal to all federal, state and local government web resources and services.